Time;durP1;ratioP1;P1;durP2;ratioP2;P2;SDS_P1;SDS_P2;PMS_P1;PMS_P2;Temp;Humidity;BMP_temperature;BMP_pressure;BME280_temperature;BME280_humidity;BME280_pressure;Samples;Min_cycle;Max_cycle;Signal;HPM_P1;HPM_P2
2022/07/08 00:00:01;;;;;;;8.25;2.10;;;15.00;99.90;;;;;;5013729;28;20201;-62
2022/07/08 00:02:28;;;;;;;9.32;1.85;;;15.10;99.90;;;;;;5026870;28;20295;-62
2022/07/08 00:04:55;;;;;;;9.68;1.50;;;15.00;99.90;;;;;;5045394;28;20199;-61
2022/07/08 00:07:21;;;;;;;14.77;2.20;;;15.00;99.90;;;;;;5020107;28;20208;-62
2022/07/08 00:09:50;;;;;;;6.13;1.98;;;15.30;99.90;;;;;;5038308;28;20573;-62
2022/07/08 00:12:17;;;;;;;10.23;2.33;;;15.00;99.90;;;;;;5041622;28;20722;-62
2022/07/08 00:14:43;;;;;;;6.72;1.90;;;14.80;99.90;;;;;;5027836;28;20235;-62
2022/07/08 00:17:10;;;;;;;5.65;1.77;;;14.90;99.90;;;;;;5025356;28;20639;-62
2022/07/08 00:19:37;;;;;;;6.82;1.23;;;14.70;99.90;;;;;;5028229;28;20304;-62
2022/07/08 00:22:04;;;;;;;14.38;2.47;;;15.00;99.90;;;;;;5020273;28;20204;-61
2022/07/08 00:24:31;;;;;;;8.82;1.60;;;15.60;99.90;;;;;;5039301;28;20200;-62
2022/07/08 00:26:59;;;;;;;5.35;1.45;;;15.20;99.90;;;;;;5028927;28;20958;-64
2022/07/08 00:29:26;;;;;;;6.90;2.00;;;15.00;99.90;;;;;;5019378;28;20553;-62
2022/07/08 00:31:53;;;;;;;6.75;2.10;;;15.90;99.90;;;;;;5010816;28;24873;-62
2022/07/08 00:34:21;;;;;;;12.80;2.15;;;15.00;99.90;;;;;;5016994;28;20225;-61
2022/07/08 00:36:47;;;;;;;5.47;1.63;;;15.60;99.90;;;;;;5019112;28;20201;-61
2022/07/08 00:39:14;;;;;;;6.82;1.60;;;14.70;99.90;;;;;;5043034;28;20197;-62
2022/07/08 00:41:41;;;;;;;8.55;1.73;;;15.90;99.90;;;;;;5022398;28;20209;-62
2022/07/08 00:44:10;;;;;;;7.15;1.85;;;14.50;99.90;;;;;;5042635;28;20699;-62
2022/07/08 00:46:37;;;;;;;7.45;1.75;;;14.70;99.90;;;;;;5000397;28;20890;-62
2022/07/08 00:49:03;;;;;;;7.88;1.50;;;14.70;99.90;;;;;;5029562;28;20197;-61
2022/07/08 00:51:31;;;;;;;8.05;2.03;;;14.60;99.90;;;;;;5026975;28;28772;-62
2022/07/08 00:53:58;;;;;;;7.60;1.67;;;14.70;99.90;;;;;;5046577;28;20228;-62
2022/07/08 00:56:27;;;;;;;7.35;2.00;;;15.10;99.90;;;;;;5044286;28;20197;-61
2022/07/08 00:58:55;;;;;;;7.50;1.75;;;14.80;99.90;;;;;;5038046;28;20193;-61
2022/07/08 01:01:23;;;;;;;10.00;1.48;;;14.70;99.90;;;;;;5024894;28;20202;-62
2022/07/08 01:03:50;;;;;;;6.15;1.52;;;14.70;99.90;;;;;;5021417;28;20232;-62
2022/07/08 01:06:17;;;;;;;6.07;1.60;;;14.50;99.90;;;;;;5025164;28;20776;-62
2022/07/08 01:08:45;;;;;;;7.07;1.92;;;14.90;99.90;;;;;;5027657;28;20681;-62
2022/07/08 01:11:13;;;;;;;6.95;1.70;;;14.70;99.90;;;;;;5019892;28;20201;-62
2022/07/08 01:13:41;;;;;;;4.75;1.70;;;14.70;99.90;;;;;;5040396;28;20221;-62
2022/07/08 01:16:08;;;;;;;11.85;1.80;;;14.70;99.90;;;;;;5042663;28;20200;-62
2022/07/08 01:18:36;;;;;;;6.63;1.80;;;14.80;99.90;;;;;;5010903;28;22389;-62
2022/07/08 01:21:04;;;;;;;7.05;1.83;;;14.70;99.90;;;;;;5031765;28;20205;-62
2022/07/08 01:23:31;;;;;;;7.45;1.70;;;14.70;99.90;;;;;;5017377;28;20204;-62
2022/07/08 01:25:59;;;;;;;8.95;1.85;;;14.70;99.90;;;;;;5025550;28;22025;-62
2022/07/08 01:28:27;;;;;;;7.28;1.67;;;14.50;99.90;;;;;;5044134;28;20193;-62
2022/07/08 01:30:54;;;;;;;8.35;1.77;;;14.50;99.90;;;;;;5027325;28;20224;-62
2022/07/08 01:33:21;;;;;;;4.38;1.58;;;14.80;99.90;;;;;;5038306;28;20328;-62
2022/07/08 01:35:47;;;;;;;8.90;1.90;;;15.10;99.90;;;;;;5018076;28;20209;-62
2022/07/08 01:38:16;;;;;;;9.73;1.92;;;14.60;99.90;;;;;;5027275;28;20213;-62
2022/07/08 01:40:43;;;;;;;5.75;1.27;;;15.70;99.90;;;;;;5004532;28;20205;-62
2022/07/08 01:43:09;;;;;;;4.40;1.38;;;14.10;99.90;;;;;;5047002;28;20201;-62
2022/07/08 01:45:36;;;;;;;7.88;1.90;;;14.50;99.90;;;;;;5026835;28;20312;-62
2022/07/08 01:48:03;;;;;;;7.88;1.73;;;14.50;99.90;;;;;;5043714;28;20197;-62
2022/07/08 01:50:30;;;;;;;9.05;2.03;;;14.50;99.90;;;;;;5002363;28;20220;-62
2022/07/08 01:52:58;;;;;;;9.30;1.40;;;14.60;99.90;;;;;;5023833;28;20208;-62
2022/07/08 01:55:26;;;;;;;4.93;1.17;;;14.50;99.90;;;;;;5021367;28;20217;-62
2022/07/08 01:57:53;;;;;;;5.18;1.35;;;14.50;99.90;;;;;;5018448;28;20208;-62
2022/07/08 02:00:20;;;;;;;8.63;1.70;;;15.00;99.90;;;;;;5042352;28;20199;-62
2022/07/08 02:02:47;;;;;;;10.30;1.52;;;14.20;99.90;;;;;;5039522;28;20198;-62
2022/07/08 02:05:15;;;;;;;6.55;1.77;;;14.80;99.90;;;;;;5009891;28;21564;-62
2022/07/08 02:07:43;;;;;;;6.53;1.67;;;14.40;99.90;;;;;;5022846;28;20209;-61
2022/07/08 02:10:10;;;;;;;6.40;1.58;;;15.10;99.90;;;;;;5008320;28;20927;-62
2022/07/08 02:12:38;;;;;;;3.92;1.35;;;14.60;99.90;;;;;;5027546;28;20545;-62
2022/07/08 02:15:07;;;;;;;5.85;2.13;;;14.40;99.90;;;;;;5031600;28;20794;-62
2022/07/08 02:17:37;;;;;;;5.32;2.10;;;14.30;99.90;;;;;;5042914;28;20204;-63
2022/07/08 02:20:06;;;;;;;7.20;1.42;;;14.50;99.90;;;;;;5025507;28;20200;-62
2022/07/08 02:22:33;;;;;;;5.43;1.67;;;14.30;99.90;;;;;;5012727;28;20338;-62
2022/07/08 02:25:00;;;;;;;5.35;1.55;;;15.90;99.90;;;;;;5031882;28;20209;-61
2022/07/08 02:27:27;;;;;;;6.93;1.48;;;14.40;99.90;;;;;;5014103;28;20232;-62
2022/07/08 02:29:56;;;;;;;4.10;1.40;;;14.50;99.90;;;;;;5035857;28;20205;-62
2022/07/08 02:32:23;;;;;;;6.18;1.50;;;14.40;99.90;;;;;;5044085;28;20227;-61
2022/07/08 02:34:50;;;;;;;7.05;2.42;;;14.50;99.90;;;;;;5012561;28;20225;-62
2022/07/08 02:37:18;;;;;;;7.65;1.50;;;14.40;99.90;;;;;;5037871;28;20207;-61
2022/07/08 02:39:44;;;;;;;5.72;1.73;;;14.70;99.90;;;;;;5008013;28;20732;-62
2022/07/08 02:42:12;;;;;;;8.68;1.60;;;14.40;99.90;;;;;;5016241;28;20206;-62
2022/07/08 02:44:38;;;;;;;8.52;2.13;;;14.30;99.90;;;;;;5010416;28;20583;-62
2022/07/08 02:47:08;;;;;;;8.13;1.23;;;14.40;99.90;;;;;;5036065;28;20583;-62
2022/07/08 02:49:35;;;;;;;8.18;1.90;;;14.40;99.90;;;;;;5035138;28;21054;-62
2022/07/08 02:52:02;;;;;;;7.05;2.03;;;14.40;99.90;;;;;;5031234;28;20857;-62
2022/07/08 02:54:29;;;;;;;7.95;1.70;;;14.40;99.90;;;;;;5010480;28;20235;-62
2022/07/08 02:56:56;;;;;;;5.68;2.00;;;14.40;99.90;;;;;;5018126;28;20213;-62
2022/07/08 02:59:23;;;;;;;8.70;2.47;;;14.20;99.90;;;;;;5027108;28;20193;-62
2022/07/08 03:01:50;;;;;;;4.55;1.67;;;14.40;99.90;;;;;;5042264;28;21065;-62
2022/07/08 03:04:18;;;;;;;10.07;1.80;;;14.20;99.90;;;;;;5037007;28;20215;-62
2022/07/08 03:06:45;;;;;;;2.90;1.30;;;14.40;99.90;;;;;;5029351;28;20717;-62
2022/07/08 03:09:12;;;;;;;7.38;1.40;;;14.00;99.90;;;;;;5018952;28;21121;-62
2022/07/08 03:11:39;;;;;;;6.60;2.00;;;14.40;99.90;;;;;;5040664;28;20660;-62
2022/07/08 03:14:06;;;;;;;5.40;1.48;;;14.30;99.90;;;;;;5010727;28;20251;-62
2022/07/08 03:16:33;;;;;;;5.68;1.38;;;14.50;99.90;;;;;;5049844;28;20212;-62
2022/07/08 03:19:00;;;;;;;7.70;1.45;;;14.20;99.90;;;;;;5038466;28;20212;-62
2022/07/08 03:21:28;;;;;;;7.47;2.08;;;14.20;99.90;;;;;;5044317;28;20216;-62
2022/07/08 03:23:55;;;;;;;8.20;2.22;;;14.20;99.90;;;;;;5013943;28;20596;-62
2022/07/08 03:26:22;;;;;;;8.30;1.85;;;14.00;99.90;;;;;;5028938;28;20687;-62
2022/07/08 03:28:49;;;;;;;7.60;1.67;;;13.90;99.90;;;;;;5020184;28;20208;-62
2022/07/08 03:31:16;;;;;;;4.35;1.70;;;14.10;99.90;;;;;;5042770;28;20228;-62
2022/07/08 03:33:43;;;;;;;8.77;1.80;;;16.30;99.90;;;;;;5023623;28;20208;-62
2022/07/08 03:36:10;;;;;;;17.33;2.75;;;14.00;99.90;;;;;;5032117;28;20783;-61
2022/07/08 03:38:38;;;;;;;5.72;1.70;;;14.10;99.90;;;;;;5031238;28;20201;-62
2022/07/08 03:41:24;;;;;;;6.60;1.17;;;13.50;99.90;;;;;;5012878;28;20209;-62
2022/07/08 03:43:52;;;;;;;8.43;1.75;;;14.00;99.90;;;;;;5022822;28;20288;-62
2022/07/08 03:46:20;;;;;;;4.40;1.73;;;13.80;99.90;;;;;;5020061;28;20575;-62
2022/07/08 03:48:47;;;;;;;5.03;1.77;;;14.20;99.90;;;;;;5025197;28;20201;-62
2022/07/08 03:51:15;;;;;;;4.85;1.58;;;13.80;99.90;;;;;;5038702;28;20719;-62
2022/07/08 03:53:44;;;;;;;7.80;1.70;;;14.00;99.90;;;;;;5035827;28;20291;-62
2022/07/08 03:56:11;;;;;;;11.88;2.25;;;13.80;99.90;;;;;;5028859;28;20209;-62
2022/07/08 03:58:39;;;;;;;7.35;2.20;;;13.60;99.90;;;;;;5039097;28;20212;-61
2022/07/08 04:01:06;;;;;;;11.73;1.90;;;14.50;99.90;;;;;;5003262;28;20215;-62
2022/07/08 04:03:33;;;;;;;22.75;2.33;;;13.90;99.90;;;;;;5030012;28;20200;-62
2022/07/08 04:06:00;;;;;;;10.45;1.65;;;14.00;99.90;;;;;;5023796;28;20310;-62
2022/07/08 04:08:27;;;;;;;5.35;1.80;;;17.20;99.90;;;;;;4991687;28;20236;-62
2022/07/08 04:10:55;;;;;;;5.10;1.65;;;13.80;99.90;;;;;;5033008;28;20201;-60
2022/07/08 04:13:23;;;;;;;8.15;1.80;;;14.00;99.90;;;;;;5021227;28;21627;-62
2022/07/08 04:15:50;;;;;;;6.97;1.42;;;13.70;99.90;;;;;;5020430;28;20225;-62
2022/07/08 04:18:17;;;;;;;11.30;1.98;;;13.80;99.90;;;;;;5026325;28;20608;-62
2022/07/08 04:20:44;;;;;;;10.98;1.75;;;13.80;99.90;;;;;;5030462;28;20456;-62
2022/07/08 04:23:11;;;;;;;10.05;1.40;;;13.80;99.90;;;;;;5039627;28;20231;-62
2022/07/08 04:25:38;;;;;;;5.18;1.35;;;13.40;99.90;;;;;;5000303;28;20201;-63
2022/07/08 04:28:06;;;;;;;6.35;1.60;;;13.70;99.90;;;;;;5035837;28;20291;-62
2022/07/08 04:30:33;;;;;;;8.85;1.75;;;15.70;99.90;;;;;;5034307;28;20201;-62
2022/07/08 04:33:00;;;;;;;4.65;1.40;;;14.00;99.90;;;;;;5035303;28;20216;-62
2022/07/08 04:35:27;;;;;;;6.78;2.13;;;13.90;99.90;;;;;;5047442;28;20228;-61
2022/07/08 04:37:54;;;;;;;3.33;1.30;;;13.90;99.90;;;;;;5026595;28;20201;-61
2022/07/08 04:40:22;;;;;;;12.30;2.08;;;13.70;99.90;;;;;;5021709;28;20205;-62
2022/07/08 04:42:49;;;;;;;4.38;1.35;;;13.80;99.90;;;;;;5015243;28;20213;-62
2022/07/08 04:45:17;;;;;;;6.03;1.77;;;13.90;99.90;;;;;;5036411;28;20228;-62
2022/07/08 04:47:44;;;;;;;5.13;1.67;;;13.30;99.90;;;;;;5001586;28;20350;-62
2022/07/08 04:50:11;;;;;;;8.48;1.52;;;13.80;99.90;;;;;;5041003;28;20264;-62
2022/07/08 04:52:38;;;;;;;8.88;1.50;;;14.10;99.90;;;;;;5038360;28;20240;-62
2022/07/08 04:55:06;;;;;;;8.73;1.85;;;13.80;99.90;;;;;;5022589;28;20645;-62
2022/07/08 04:57:33;;;;;;;8.77;1.42;;;14.00;99.90;;;;;;5003082;28;21183;-63
2022/07/08 05:00:00;;;;;;;9.05;1.55;;;14.10;99.90;;;;;;5035944;28;20222;-63
2022/07/08 05:02:29;;;;;;;10.98;1.88;;;14.30;99.90;;;;;;5010143;28;20225;-62
2022/07/08 05:04:55;;;;;;;10.77;2.47;;;14.20;99.90;;;;;;5040866;28;20212;-62
2022/07/08 05:07:22;;;;;;;5.28;1.50;;;14.40;99.90;;;;;;5047020;28;20236;-62
2022/07/08 05:09:49;;;;;;;8.88;1.85;;;14.30;99.90;;;;;;5048470;28;20825;-62
2022/07/08 05:12:16;;;;;;;9.80;1.85;;;14.30;99.90;;;;;;5009513;28;20206;-62
2022/07/08 05:14:43;;;;;;;5.78;1.48;;;14.30;99.90;;;;;;5034385;28;20225;-62
2022/07/08 05:17:10;;;;;;;5.40;1.50;;;14.30;99.90;;;;;;5023400;28;20306;-63
2022/07/08 05:19:38;;;;;;;7.28;1.67;;;14.20;99.90;;;;;;5032006;28;20929;-62
2022/07/08 05:22:05;;;;;;;9.40;1.85;;;14.40;99.90;;;;;;5040593;28;20197;-62
2022/07/08 05:24:32;;;;;;;7.90;1.95;;;15.60;99.90;;;;;;5022754;28;20296;-62
2022/07/08 05:26:58;;;;;;;3.85;1.73;;;14.50;99.90;;;;;;5030248;28;20211;-62
2022/07/08 05:29:25;;;;;;;8.60;1.95;;;17.20;99.90;;;;;;5013372;28;20209;-62
2022/07/08 05:31:53;;;;;;;6.80;1.83;;;14.80;99.90;;;;;;5047495;28;20216;-62
2022/07/08 05:34:21;;;;;;;9.25;2.05;;;15.60;99.90;;;;;;5013974;28;20353;-62
2022/07/08 05:36:49;;;;;;;4.53;1.58;;;14.80;99.90;;;;;;5032402;28;20211;-62
2022/07/08 05:39:16;;;;;;;7.13;1.60;;;14.80;99.90;;;;;;5038151;28;20201;-62
2022/07/08 05:41:43;;;;;;;5.00;1.58;;;14.80;99.90;;;;;;5036748;28;20275;-62
2022/07/08 05:44:10;;;;;;;6.93;2.30;;;14.60;99.90;;;;;;5015785;28;20216;-62
2022/07/08 05:46:36;;;;;;;4.53;1.83;;;14.80;99.90;;;;;;5042014;28;20893;-62
2022/07/08 05:49:03;;;;;;;7.60;1.67;;;14.80;99.90;;;;;;5027712;28;20196;-61
2022/07/08 05:51:30;;;;;;;9.73;1.95;;;14.70;99.90;;;;;;5020989;28;20248;-62
2022/07/08 05:53:58;;;;;;;6.43;1.67;;;14.50;99.90;;;;;;5039277;28;20201;-62
2022/07/08 05:56:25;;;;;;;14.43;1.85;;;15.00;99.90;;;;;;5029471;28;20224;-62
2022/07/08 05:58:52;;;;;;;10.77;2.05;;;14.90;99.90;;;;;;5011707;28;20300;-62
2022/07/08 06:01:19;;;;;;;4.68;1.63;;;15.10;99.90;;;;;;5019618;28;20204;-63
2022/07/08 06:03:46;;;;;;;7.47;1.75;;;14.80;99.90;;;;;;5020290;28;20300;-62
2022/07/08 06:06:12;;;;;;;8.88;1.75;;;15.00;99.90;;;;;;5039447;28;20579;-63
2022/07/08 06:08:39;;;;;;;6.68;1.90;;;15.10;99.90;;;;;;5038066;28;20200;-62
2022/07/08 06:11:07;;;;;;;8.13;1.90;;;15.20;99.90;;;;;;5045368;28;20224;-61
2022/07/08 06:13:34;;;;;;;6.68;1.85;;;15.40;99.90;;;;;;5027859;28;20727;-63
2022/07/08 06:16:01;;;;;;;5.03;1.50;;;15.20;99.90;;;;;;5030341;28;20220;-63
2022/07/08 06:18:28;;;;;;;9.98;2.35;;;15.30;99.90;;;;;;5023375;28;20315;-63
2022/07/08 06:20:55;;;;;;;8.07;1.60;;;15.40;99.90;;;;;;5010627;28;20279;-61
2022/07/08 06:23:23;;;;;;;5.93;1.67;;;15.80;99.90;;;;;;5039205;28;20983;-63
2022/07/08 06:25:50;;;;;;;10.10;2.22;;;15.90;99.90;;;;;;5024881;28;20221;-62
2022/07/08 06:28:18;;;;;;;11.23;3.03;;;15.60;99.90;;;;;;5031313;28;20207;-62
2022/07/08 06:30:44;;;;;;;8.57;1.73;;;15.80;99.90;;;;;;5021848;28;20216;-63
2022/07/08 06:33:11;;;;;;;7.05;1.70;;;15.70;99.90;;;;;;5038317;28;20212;-63
2022/07/08 06:35:38;;;;;;;11.23;2.20;;;15.70;99.90;;;;;;5016462;28;20227;-62
2022/07/08 06:38:05;;;;;;;5.00;1.38;;;15.70;99.90;;;;;;5045295;28;20193;-63
2022/07/08 06:40:32;;;;;;;8.38;1.95;;;15.70;99.90;;;;;;5043685;28;20212;-62
2022/07/08 06:42:58;;;;;;;10.35;2.03;;;15.70;99.90;;;;;;5033421;28;21136;-62
2022/07/08 06:45:27;;;;;;;6.32;1.52;;;16.20;99.90;;;;;;5039678;28;20201;-63
2022/07/08 06:47:54;;;;;;;7.15;1.65;;;15.60;99.90;;;;;;5007210;28;20208;-62
2022/07/08 06:50:21;;;;;;;8.57;2.45;;;15.70;99.90;;;;;;5022863;28;20220;-62
2022/07/08 06:52:48;;;;;;;6.45;1.90;;;13.60;99.90;;;;;;5021839;28;21067;-61
2022/07/08 06:55:15;;;;;;;6.03;1.80;;;15.40;99.90;;;;;;5039447;28;20231;-62
2022/07/08 06:57:41;;;;;;;12.73;2.20;;;15.90;99.90;;;;;;5041235;28;20216;-62
2022/07/08 07:00:09;;;;;;;12.15;1.92;;;15.60;99.90;;;;;;5023520;28;20225;-62
2022/07/08 07:02:38;;;;;;;9.60;2.38;;;15.30;99.90;;;;;;5025992;28;20204;-63
2022/07/08 07:05:05;;;;;;;4.90;1.92;;;15.60;99.90;;;;;;4988964;28;21205;-63
2022/07/08 07:07:32;;;;;;;5.10;1.75;;;15.70;99.90;;;;;;5033122;28;20220;-62
2022/07/08 07:09:59;;;;;;;8.13;1.60;;;15.60;99.90;;;;;;5030812;28;20722;-62
2022/07/08 07:12:26;;;;;;;4.03;1.60;;;18.60;99.90;;;;;;5024746;28;20221;-63
2022/07/08 07:14:54;;;;;;;7.50;1.88;;;15.70;99.90;;;;;;5032053;28;20221;-62
2022/07/08 07:17:22;;;;;;;7.18;1.67;;;15.70;99.90;;;;;;5021654;28;20229;-62
2022/07/08 07:19:50;;;;;;;6.43;1.65;;;15.90;99.90;;;;;;5031174;28;20235;-62
2022/07/08 07:22:18;;;;;;;15.75;2.10;;;17.50;99.90;;;;;;5019220;28;20229;-63
2022/07/08 07:24:45;;;;;;;4.68;1.83;;;15.70;99.90;;;;;;5027393;28;20375;-62
2022/07/08 07:27:12;;;;;;;8.85;2.58;;;15.60;99.90;;;;;;5014334;28;20232;-62
2022/07/08 07:29:38;;;;;;;12.38;1.70;;;15.90;99.90;;;;;;5037045;28;20224;-62
2022/07/08 07:32:06;;;;;;;3.83;1.40;;;15.70;99.90;;;;;;5016401;28;20221;-63
2022/07/08 07:34:32;;;;;;;7.93;1.88;;;15.80;99.90;;;;;;5027336;28;20205;-62
2022/07/08 07:37:01;;;;;;;5.22;2.28;;;15.70;99.90;;;;;;5008783;28;20715;-62
2022/07/08 07:39:27;;;;;;;8.55;1.88;;;15.60;99.90;;;;;;5032071;28;20725;-63
2022/07/08 07:41:54;;;;;;;4.13;1.63;;;15.90;99.90;;;;;;5037487;28;20220;-64
2022/07/08 07:44:21;;;;;;;13.07;2.22;;;15.70;99.90;;;;;;5023009;28;20830;-62
2022/07/08 07:46:48;;;;;;;8.88;2.50;;;15.70;99.90;;;;;;5046813;28;20464;-62
2022/07/08 07:49:15;;;;;;;7.10;2.00;;;16.70;99.90;;;;;;5022737;28;21846;-62
2022/07/08 07:51:42;;;;;;;8.90;2.05;;;16.10;99.90;;;;;;5017162;28;20203;-62
2022/07/08 07:54:10;;;;;;;12.52;1.77;;;16.20;99.90;;;;;;5017694;28;20265;-62
2022/07/08 07:56:37;;;;;;;14.93;2.17;;;16.30;99.90;;;;;;5025473;28;20229;-63
2022/07/08 07:59:03;;;;;;;13.27;2.35;;;16.40;99.90;;;;;;5035586;28;20208;-62
2022/07/08 08:01:30;;;;;;;9.85;2.38;;;16.60;99.90;;;;;;5032337;28;20221;-63
2022/07/08 08:03:57;;;;;;;15.85;1.73;;;16.50;99.90;;;;;;5029515;28;20216;-62
2022/07/08 08:06:24;;;;;;;6.15;1.75;;;16.80;99.90;;;;;;5045983;28;20197;-62
2022/07/08 08:08:51;;;;;;;6.88;2.10;;;16.70;99.90;;;;;;5012247;28;20221;-62
2022/07/08 08:11:20;;;;;;;9.50;2.53;;;16.70;99.90;;;;;;5031112;28;20208;-62
2022/07/08 08:13:46;;;;;;;9.88;1.95;;;16.60;99.90;;;;;;5042312;28;20219;-63
2022/07/08 08:16:13;;;;;;;5.00;1.80;;;16.10;99.90;;;;;;5023757;28;20225;-62
2022/07/08 08:18:40;;;;;;;4.47;1.52;;;16.70;99.90;;;;;;5044484;28;20196;-63
2022/07/08 08:21:07;;;;;;;6.28;1.77;;;16.10;99.90;;;;;;5013892;28;20253;-63
2022/07/08 08:23:34;;;;;;;8.85;2.42;;;16.00;99.90;;;;;;5029580;28;20232;-62
2022/07/08 08:26:00;;;;;;;9.98;2.15;;;16.20;99.90;;;;;;5033753;28;20208;-63
2022/07/08 08:28:29;;;;;;;7.95;1.80;;;16.30;99.90;;;;;;5036663;28;20224;-63
2022/07/08 08:30:55;;;;;;;6.25;1.90;;;16.40;99.90;;;;;;5030429;28;20216;-62
2022/07/08 08:33:22;;;;;;;6.28;2.10;;;16.30;99.90;;;;;;5031894;28;20231;-63
2022/07/08 08:35:49;;;;;;;7.82;2.00;;;16.60;99.90;;;;;;5029972;28;20232;-63
2022/07/08 08:38:16;;;;;;;5.80;2.15;;;16.40;99.90;;;;;;5009344;28;20855;-63
2022/07/08 08:40:43;;;;;;;5.20;1.90;;;16.40;99.90;;;;;;5034628;28;20263;-62
2022/07/08 08:43:10;;;;;;;8.15;2.00;;;16.40;99.90;;;;;;5032464;28;20217;-63
2022/07/08 08:45:39;;;;;;;6.40;1.83;;;16.40;99.90;;;;;;5031300;28;20237;-63
2022/07/08 08:48:08;;;;;;;3.75;1.63;;;16.20;99.90;;;;;;5042118;28;20204;-63
2022/07/08 08:50:54;;;;;;;6.70;2.08;;;16.40;99.90;;;;;;5015616;28;20240;-63
2022/07/08 08:53:28;;;;;;;10.02;1.83;;;16.40;99.90;;;;;;5016877;28;20212;-62
2022/07/08 08:55:56;;;;;;;12.02;2.55;;;16.40;99.90;;;;;;5039010;28;20216;-63
2022/07/08 08:58:23;;;;;;;13.63;2.22;;;16.40;99.90;;;;;;5014485;28;20204;-63
2022/07/08 09:00:52;;;;;;;8.75;2.05;;;16.40;99.90;;;;;;5033657;28;20576;-62
2022/07/08 09:03:18;;;;;;;8.65;1.85;;;18.00;99.90;;;;;;5029182;28;20224;-63
2022/07/08 09:05:45;;;;;;;8.90;1.80;;;16.70;99.90;;;;;;5027180;28;20216;-63
2022/07/08 09:08:12;;;;;;;3.72;1.50;;;16.50;99.90;;;;;;5039711;28;20387;-63
2022/07/08 09:10:39;;;;;;;6.63;3.70;;;15.90;99.90;;;;;;5021508;28;20227;-63
2022/07/08 09:13:10;;;;;;;6.38;1.80;;;16.50;99.90;;;;;;5026179;28;20221;-62
2022/07/08 09:15:38;;;;;;;7.55;2.40;;;16.40;99.90;;;;;;5043341;28;20245;-63
2022/07/08 09:18:08;;;;;;;7.25;2.10;;;16.50;99.90;;;;;;5027766;28;20205;-63
2022/07/08 09:20:43;;;;;;;4.35;1.77;;;14.90;99.90;;;;;;5015537;28;20231;-63
2022/07/08 09:23:13;;;;;;;6.78;1.90;;;16.60;99.90;;;;;;5040824;28;20228;-64
2022/07/08 09:25:40;;;;;;;4.15;1.90;;;16.70;99.90;;;;;;5007138;28;20249;-63
2022/07/08 09:28:07;;;;;;;6.05;2.20;;;;;;;;;;5035977;28;20221;-64
2022/07/08 09:30:34;;;;;;;11.75;2.20;;;16.60;99.90;;;;;;5036087;28;20205;-64
2022/07/08 09:33:02;;;;;;;5.53;1.77;;;16.70;99.90;;;;;;5030641;28;20197;-64
2022/07/08 09:35:36;;;;;;;4.82;2.15;;;16.60;99.90;;;;;;5024016;28;20319;-63
2022/07/08 09:38:04;;;;;;;10.55;2.30;;;16.50;99.90;;;;;;5020270;28;20719;-63
2022/07/08 09:40:31;;;;;;;7.65;1.75;;;16.70;99.90;;;;;;5009221;28;20216;-63
2022/07/08 09:43:01;;;;;;;5.75;2.08;;;16.80;99.90;;;;;;5022891;28;20225;-64
2022/07/08 09:45:32;;;;;;;12.52;2.40;;;16.70;99.90;;;;;;5018775;28;20582;-63
2022/07/08 09:48:06;;;;;;;7.00;2.45;;;16.90;99.90;;;;;;5026384;28;20602;-64
2022/07/08 09:50:36;;;;;;;4.38;2.03;;;16.80;99.90;;;;;;5015282;28;20229;-63
2022/07/08 09:53:17;;;;;;;5.72;2.08;;;16.70;99.90;;;;;;5028042;28;20205;-63
2022/07/08 09:55:47;;;;;;;6.72;2.15;;;16.80;99.90;;;;;;5015181;28;20229;-64
2022/07/08 09:58:15;;;;;;;7.40;2.42;;;17.00;99.90;;;;;;5038254;28;20208;-63
2022/07/08 10:00:44;;;;;;;11.02;3.00;;;17.00;99.90;;;;;;5028842;28;20209;-63
2022/07/08 10:03:11;;;;;;;9.32;2.10;;;;;;;;;;5012010;28;20232;-63
2022/07/08 10:05:40;;;;;;;6.72;1.70;;;17.10;99.90;;;;;;5038891;28;20307;-63
2022/07/08 10:08:07;;;;;;;7.80;2.30;;;17.20;99.90;;;;;;5012773;28;20227;-64
2022/07/08 10:10:35;;;;;;;5.78;2.20;;;17.20;99.90;;;;;;5019257;28;22189;-63
2022/07/08 10:13:03;;;;;;;9.27;1.85;;;17.20;99.90;;;;;;5015289;28;20205;-64
2022/07/08 10:15:32;;;;;;;7.03;1.92;;;17.10;99.90;;;;;;5041834;28;20207;-63
2022/07/08 10:18:03;;;;;;;6.55;2.22;;;17.20;99.90;;;;;;5013583;28;20739;-64
2022/07/08 10:20:32;;;;;;;10.45;2.22;;;17.00;99.90;;;;;;5033879;28;20248;-64
2022/07/08 10:23:05;;;;;;;6.43;1.95;;;17.10;99.90;;;;;;5031656;28;20206;-64
2022/07/08 10:25:33;;;;;;;5.75;2.10;;;17.30;99.90;;;;;;5014964;28;20226;-63
2022/07/08 10:28:10;;;;;;;7.97;3.63;;;17.20;99.90;;;;;;5015457;28;20579;-63
2022/07/08 10:30:51;;;;;;;7.13;1.77;;;17.10;99.90;;;;;;5013680;28;20729;-64
2022/07/08 10:33:19;;;;;;;4.95;2.10;;;17.20;99.90;;;;;;5025827;28;20273;-63
2022/07/08 10:36:03;;;;;;;6.57;2.13;;;17.60;99.90;;;;;;5003585;28;20252;-63
2022/07/08 10:38:34;;;;;;;5.53;2.00;;;17.00;99.90;;;;;;5012804;28;20207;-64
2022/07/08 10:41:07;;;;;;;5.57;1.80;;;16.90;99.90;;;;;;5023767;28;20201;-63
2022/07/08 10:43:35;;;;;;;4.72;1.65;;;;;;;;;;5022404;28;20224;-63
2022/07/08 10:46:14;;;;;;;6.10;1.80;;;17.10;99.90;;;;;;5034319;28;20228;-63
2022/07/08 10:48:52;;;;;;;6.90;1.73;;;17.10;99.90;;;;;;5020738;28;20220;-64
2022/07/08 10:51:50;;;;;;;5.75;1.90;;;17.10;99.90;;;;;;5016891;28;20239;-63
2022/07/08 10:54:36;;;;;;;5.70;2.42;;;17.00;99.90;;;;;;5034622;28;20707;-63
2022/07/08 10:57:15;;;;;;;6.57;2.40;;;16.90;99.90;;;;;;5014947;28;20634;-63
2022/07/08 10:59:45;;;;;;;9.10;2.42;;;17.20;99.90;;;;;;4984131;28;20237;-63
2022/07/08 11:02:15;;;;;;;9.23;2.03;;;17.00;99.90;;;;;;5030328;28;20220;-63
2022/07/08 11:04:47;;;;;;;8.25;2.40;;;15.40;99.90;;;;;;5018437;28;20308;-63
2022/07/08 11:07:28;;;;;;;4.32;1.85;;;18.00;99.90;;;;;;5014669;28;20209;-63
2022/07/08 11:09:58;;;;;;;3.78;1.90;;;17.30;99.90;;;;;;5021951;28;20278;-63
2022/07/08 11:12:28;;;;;;;5.75;1.88;;;17.30;99.90;;;;;;5011988;28;20256;-64
2022/07/08 11:14:56;;;;;;;4.63;2.30;;;17.00;99.90;;;;;;5012576;28;20236;-64
2022/07/08 11:17:25;;;;;;;7.28;2.35;;;17.40;99.90;;;;;;5036643;28;20734;-63
2022/07/08 11:19:54;;;;;;;4.13;2.10;;;17.30;99.90;;;;;;5005075;28;20794;-63
2022/07/08 11:22:22;;;;;;;4.57;1.85;;;17.30;99.90;;;;;;5029137;28;20204;-64
2022/07/08 11:24:50;;;;;;;6.40;2.30;;;17.60;99.90;;;;;;5005141;28;20319;-64
2022/07/08 11:27:23;;;;;;;6.68;2.70;;;17.40;99.90;;;;;;5011890;28;20224;-63
2022/07/08 11:29:52;;;;;;;8.52;2.20;;;17.00;99.90;;;;;;5015448;28;20349;-64
2022/07/08 11:32:19;;;;;;;10.18;2.45;;;17.40;99.90;;;;;;5023310;28;20228;-64
2022/07/08 11:34:47;;;;;;;11.38;2.10;;;18.10;99.90;;;;;;5020389;28;20225;-63
2022/07/08 11:37:14;;;;;;;11.38;2.55;;;17.40;99.90;;;;;;5011587;28;20236;-63
2022/07/08 11:39:42;;;;;;;4.25;2.17;;;17.40;99.90;;;;;;5013378;28;20215;-63
2022/07/08 11:42:10;;;;;;;6.60;2.47;;;17.30;99.90;;;;;;4998852;28;20228;-64
2022/07/08 11:44:38;;;;;;;11.55;2.65;;;17.60;99.90;;;;;;5023952;28;20252;-63
2022/07/08 11:47:06;;;;;;;9.55;2.53;;;17.40;99.90;;;;;;4997431;28;20231;-63
2022/07/08 11:49:34;;;;;;;5.78;2.80;;;17.40;99.90;;;;;;5018176;28;20229;-64
2022/07/08 11:52:01;;;;;;;7.57;2.63;;;17.50;99.90;;;;;;4983824;28;20240;-63
2022/07/08 11:54:29;;;;;;;6.30;2.20;;;17.50;99.90;;;;;;4984224;28;20704;-63
2022/07/08 11:56:58;;;;;;;8.63;2.63;;;17.40;99.90;;;;;;5001447;28;20241;-63
2022/07/08 11:59:27;;;;;;;6.13;2.38;;;17.50;99.90;;;;;;4991422;28;21224;-64
2022/07/08 12:01:57;;;;;;;10.10;2.65;;;17.50;99.90;;;;;;4975758;28;20716;-63
2022/07/08 12:04:24;;;;;;;4.70;2.30;;;17.40;99.90;;;;;;5015232;28;20717;-64
2022/07/08 12:06:53;;;;;;;7.25;2.55;;;17.50;99.90;;;;;;4979362;28;20214;-64
2022/07/08 12:09:21;;;;;;;7.38;2.53;;;17.50;99.90;;;;;;4996381;28;20207;-64
2022/07/08 12:11:49;;;;;;;5.03;2.22;;;17.60;99.90;;;;;;4981808;28;20226;-63
2022/07/08 12:14:16;;;;;;;5.43;2.70;;;19.50;99.90;;;;;;5000926;28;20202;-63
2022/07/08 12:16:45;;;;;;;12.85;2.78;;;17.60;99.90;;;;;;5002225;28;20236;-63
2022/07/08 12:19:30;;;;;;;10.57;2.22;;;17.70;99.90;;;;;;4986372;28;21258;-64
2022/07/08 12:21:58;;;;;;;6.38;2.47;;;17.80;99.90;;;;;;5002123;28;20222;-63
2022/07/08 12:24:27;;;;;;;11.85;2.55;;;17.70;99.90;;;;;;5006737;28;20244;-63
2022/07/08 12:26:57;;;;;;;6.03;2.33;;;17.70;99.90;;;;;;4991736;28;20720;-63
2022/07/08 12:29:24;;;;;;;5.95;2.60;;;17.70;99.90;;;;;;5004714;28;20206;-63
2022/07/08 12:31:51;;;;;;;7.78;2.50;;;17.60;99.90;;;;;;4993042;28;22155;-63
2022/07/08 12:34:19;;;;;;;6.65;2.38;;;17.80;99.90;;;;;;5001817;28;20326;-63
2022/07/08 12:36:48;;;;;;;7.45;2.72;;;17.60;99.90;;;;;;5007423;28;20221;-63
2022/07/08 12:39:17;;;;;;;5.97;2.47;;;17.80;99.90;;;;;;4990320;28;23988;-63
2022/07/08 12:41:47;;;;;;;10.52;2.30;;;17.90;99.90;;;;;;5000867;28;20792;-62
2022/07/08 12:44:35;;;;;;;7.70;2.58;;;18.00;99.90;;;;;;4994804;28;21520;-64
2022/07/08 12:47:02;;;;;;;6.22;3.22;;;;;;;;;;4989397;28;20225;-63
2022/07/08 12:49:31;;;;;;;4.13;2.03;;;18.00;99.90;;;;;;5008432;28;20235;-64